sensor_id;sensor_type;location;lat;lon;timestamp;temperature;humidity
1165;DHT22;571;50.930;6.926;2023-02-28T03:46:06;2.10;80.50
1165;DHT22;571;50.930;6.926;2023-02-28T03:48:39;2.10;80.80
1165;DHT22;571;50.930;6.926;2023-02-28T03:51:10;2.10;80.60
1165;DHT22;571;50.930;6.926;2023-02-28T03:53:42;2.00;80.10
1165;DHT22;571;50.930;6.926;2023-02-28T03:56:15;1.90;80.70
1165;DHT22;571;50.930;6.926;2023-02-28T03:58:49;1.80;80.70
1165;DHT22;571;50.930;6.926;2023-02-28T04:01:23;1.70;81.10
1165;DHT22;571;50.930;6.926;2023-02-28T04:03:50;1.90;80.50
1165;DHT22;571;50.930;6.926;2023-02-28T04:06:20;1.80;80.90
1165;DHT22;571;50.930;6.926;2023-02-28T04:08:47;1.70;81.60
1165;DHT22;571;50.930;6.926;2023-02-28T04:11:20;1.70;82.70
1165;DHT22;571;50.930;6.926;2023-02-28T04:13:47;1.70;82.50
1165;DHT22;571;50.930;6.926;2023-02-28T04:16:14;1.80;82.40
1165;DHT22;571;50.930;6.926;2023-02-28T04:18:43;1.70;83.30
1165;DHT22;571;50.930;6.926;2023-02-28T04:21:10;1.60;83.50
1165;DHT22;571;50.930;6.926;2023-02-28T04:23:36;1.60;84.20
1165;DHT22;571;50.930;6.926;2023-02-28T04:26:04;1.60;84.90
1165;DHT22;571;50.930;6.926;2023-02-28T04:28:31;1.60;84.70
1165;DHT22;571;50.930;6.926;2023-02-28T04:31:00;1.60;85.30
1165;DHT22;571;50.930;6.926;2023-02-28T04:33:28;1.60;85.30
1165;DHT22;571;50.930;6.926;2023-02-28T04:36:00;1.50;85.90
1165;DHT22;571;50.930;6.926;2023-02-28T04:38:28;1.40;87.30
1165;DHT22;571;50.930;6.926;2023-02-28T04:40:57;1.50;85.70
1165;DHT22;571;50.930;6.926;2023-02-28T04:43:23;1.60;85.20
1165;DHT22;571;50.930;6.926;2023-02-28T04:45:50;1.60;85.40
1165;DHT22;571;50.930;6.926;2023-02-28T04:48:17;1.60;85.40
1165;DHT22;571;50.930;6.926;2023-02-28T04:50:43;1.80;84.60
1165;DHT22;571;50.930;6.926;2023-02-28T04:53:11;1.90;83.70
1165;DHT22;571;50.930;6.926;2023-02-28T04:55:38;2.00;83.30
1165;DHT22;571;50.930;6.926;2023-02-28T04:58:06;1.90;83.40
1165;DHT22;571;50.930;6.926;2023-02-28T05:00:32;2.00;83.00
1165;DHT22;571;50.930;6.926;2023-02-28T05:02:59;2.10;82.00
1165;DHT22;571;50.930;6.926;2023-02-28T05:05:26;2.10;81.80
1165;DHT22;571;50.930;6.926;2023-02-28T05:07:53;2.10;81.60
1165;DHT22;571;50.930;6.926;2023-02-28T05:10:22;1.90;81.50
1165;DHT22;571;50.930;6.926;2023-02-28T05:12:48;2.00;81.80
1165;DHT22;571;50.930;6.926;2023-02-28T05:15:16;2.00;81.90
1165;DHT22;571;50.930;6.926;2023-02-28T05:17:43;2.00;81.50
1165;DHT22;571;50.930;6.926;2023-02-28T05:20:10;2.00;81.30
1165;DHT22;571;50.930;6.926;2023-02-28T05:22:38;2.00;81.40
1165;DHT22;571;50.930;6.926;2023-02-28T05:25:06;1.90;82.30
1165;DHT22;571;50.930;6.926;2023-02-28T05:27:34;1.70;82.90
1165;DHT22;571;50.930;6.926;2023-02-28T05:30:01;1.80;82.60
1165;DHT22;571;50.930;6.926;2023-02-28T05:32:29;1.80;82.30
1165;DHT22;571;50.930;6.926;2023-02-28T05:34:56;1.80;82.30
1165;DHT22;571;50.930;6.926;2023-02-28T05:37:23;1.60;83.30
1165;DHT22;571;50.930;6.926;2023-02-28T05:39:49;1.70;83.00
1165;DHT22;571;50.930;6.926;2023-02-28T05:42:16;1.70;82.70
1165;DHT22;571;50.930;6.926;2023-02-28T05:44:44;1.60;83.30
1165;DHT22;571;50.930;6.926;2023-02-28T05:47:11;1.70;81.80
1165;DHT22;571;50.930;6.926;2023-02-28T05:49:40;1.80;81.80
1165;DHT22;571;50.930;6.926;2023-02-28T05:52:07;1.70;81.60
1165;DHT22;571;50.930;6.926;2023-02-28T05:54:34;1.80;81.80
1165;DHT22;571;50.930;6.926;2023-02-28T05:57:00;1.80;81.50
1165;DHT22;571;50.930;6.926;2023-02-28T05:59:27;1.70;80.50
1165;DHT22;571;50.930;6.926;2023-02-28T06:01:55;1.80;80.10
1165;DHT22;571;50.930;6.926;2023-02-28T06:04:22;1.90;79.60
1165;DHT22;571;50.930;6.926;2023-02-28T06:06:49;1.90;79.60
1165;DHT22;571;50.930;6.926;2023-02-28T06:09:17;1.80;79.40
1165;DHT22;571;50.930;6.926;2023-02-28T06:11:44;1.80;79.10
1165;DHT22;571;50.930;6.926;2023-02-28T06:14:14;1.80;79.60
1165;DHT22;571;50.930;6.926;2023-02-28T06:16:42;1.80;79.30
1165;DHT22;571;50.930;6.926;2023-02-28T06:19:10;1.90;79.10
1165;DHT22;571;50.930;6.926;2023-02-28T06:21:38;1.90;78.50
1165;DHT22;571;50.930;6.926;2023-02-28T06:24:05;1.70;79.30
1165;DHT22;571;50.930;6.926;2023-02-28T06:26:32;1.70;79.90
1165;DHT22;571;50.930;6.926;2023-02-28T06:28:59;1.60;79.80
1165;DHT22;571;50.930;6.926;2023-02-28T06:31:27;1.80;79.40
1165;DHT22;571;50.930;6.926;2023-02-28T06:33:55;1.70;79.80
1165;DHT22;571;50.930;6.926;2023-02-28T06:36:23;1.70;80.10
1165;DHT22;571;50.930;6.926;2023-02-28T06:38:50;1.70;79.20
1165;DHT22;571;50.930;6.926;2023-02-28T06:41:20;1.90;78.80
1165;DHT22;571;50.930;6.926;2023-02-28T06:43:47;1.80;78.90
1165;DHT22;571;50.930;6.926;2023-02-28T06:46:14;1.70;78.80
1165;DHT22;571;50.930;6.926;2023-02-28T06:48:40;1.80;79.40
1165;DHT22;571;50.930;6.926;2023-02-28T06:51:09;1.90;78.40
1165;DHT22;571;50.930;6.926;2023-02-28T06:53:37;2.00;77.60
1165;DHT22;571;50.930;6.926;2023-02-28T06:56:04;2.00;77.30
1165;DHT22;571;50.930;6.926;2023-02-28T06:58:32;1.90;77.90
1165;DHT22;571;50.930;6.926;2023-02-28T07:00:59;1.90;77.90
1165;DHT22;571;50.930;6.926;2023-02-28T07:03:26;1.80;78.40
1165;DHT22;571;50.930;6.926;2023-02-28T07:05:52;1.80;78.60
1165;DHT22;571;50.930;6.926;2023-02-28T07:08:22;1.80;78.50
1165;DHT22;571;50.930;6.926;2023-02-28T07:10:53;1.90;78.10
1165;DHT22;571;50.930;6.926;2023-02-28T07:13:20;1.80;79.10
1165;DHT22;571;50.930;6.926;2023-02-28T07:15:53;1.80;78.50
1165;DHT22;571;50.930;6.926;2023-02-28T07:18:20;1.90;77.60
1165;DHT22;571;50.930;6.926;2023-02-28T07:20:46;2.00;77.50
1165;DHT22;571;50.930;6.926;2023-02-28T07:23:13;2.10;76.60
1165;DHT22;571;50.930;6.926;2023-02-28T07:25:40;2.00;76.80
1165;DHT22;571;50.930;6.926;2023-02-28T07:28:08;1.90;76.70
1165;DHT22;571;50.930;6.926;2023-02-28T07:30:34;1.90;77.40
1165;DHT22;571;50.930;6.926;2023-02-28T07:33:01;2.00;76.50
1165;DHT22;571;50.930;6.926;2023-02-28T07:35:29;2.10;76.90
1165;DHT22;571;50.930;6.926;2023-02-28T07:37:57;2.20;76.30
1165;DHT22;571;50.930;6.926;2023-02-28T07:40:24;2.30;75.80
1165;DHT22;571;50.930;6.926;2023-02-28T07:42:51;2.30;75.70
1165;DHT22;571;50.930;6.926;2023-02-28T07:45:19;2.30;75.70
1165;DHT22;571;50.930;6.926;2023-02-28T07:47:46;2.40;75.40
1165;DHT22;571;50.930;6.926;2023-02-28T07:50:14;2.50;73.90
1165;DHT22;571;50.930;6.926;2023-02-28T07:52:41;2.50;73.40
1165;DHT22;571;50.930;6.926;2023-02-28T07:55:09;2.40;73.00
1165;DHT22;571;50.930;6.926;2023-02-28T07:57:36;2.50;73.00
1165;DHT22;571;50.930;6.926;2023-02-28T08:00:03;2.50;72.40
1165;DHT22;571;50.930;6.926;2023-02-28T08:02:31;2.50;72.90
1165;DHT22;571;50.930;6.926;2023-02-28T08:04:59;2.60;72.20
1165;DHT22;571;50.930;6.926;2023-02-28T08:07:26;2.70;71.30
1165;DHT22;571;50.930;6.926;2023-02-28T08:09:53;2.80;70.00
1165;DHT22;571;50.930;6.926;2023-02-28T08:12:20;2.80;69.60
1165;DHT22;571;50.930;6.926;2023-02-28T08:14:46;2.90;69.60
1165;DHT22;571;50.930;6.926;2023-02-28T08:17:13;2.90;68.80
1165;DHT22;571;50.930;6.926;2023-02-28T08:19:41;2.90;67.90
1165;DHT22;571;50.930;6.926;2023-02-28T08:22:08;2.90;68.40
1165;DHT22;571;50.930;6.926;2023-02-28T08:24:34;2.90;67.90
1165;DHT22;571;50.930;6.926;2023-02-28T08:27:01;2.90;67.90
1165;DHT22;571;50.930;6.926;2023-02-28T08:29:28;3.10;67.10
1165;DHT22;571;50.930;6.926;2023-02-28T08:31:55;3.20;66.00
1165;DHT22;571;50.930;6.926;2023-02-28T08:34:22;3.30;64.70
1165;DHT22;571;50.930;6.926;2023-02-28T08:36:51;3.30;64.50
1165;DHT22;571;50.930;6.926;2023-02-28T08:39:18;3.30;63.20
1165;DHT22;571;50.930;6.926;2023-02-28T08:41:45;3.30;63.00
1165;DHT22;571;50.930;6.926;2023-02-28T08:44:12;3.50;62.30
1165;DHT22;571;50.930;6.926;2023-02-28T08:46:38;3.40;59.70
1165;DHT22;571;50.930;6.926;2023-02-28T08:49:05;3.50;60.30
1165;DHT22;571;50.930;6.926;2023-02-28T08:51:32;3.60;59.50
1165;DHT22;571;50.930;6.926;2023-02-28T08:54:01;3.70;59.10
1165;DHT22;571;50.930;6.926;2023-02-28T08:56:28;3.60;60.00
1165;DHT22;571;50.930;6.926;2023-02-28T08:58:56;3.70;60.20
1165;DHT22;571;50.930;6.926;2023-02-28T09:01:25;3.80;59.80
1165;DHT22;571;50.930;6.926;2023-02-28T09:03:54;3.70;60.10
1165;DHT22;571;50.930;6.926;2023-02-28T09:06:24;3.80;58.30
1165;DHT22;571;50.930;6.926;2023-02-28T09:08:51;3.80;57.60
1165;DHT22;571;50.930;6.926;2023-02-28T09:11:19;3.90;58.80
1165;DHT22;571;50.930;6.926;2023-02-28T09:13:46;4.00;57.10
1165;DHT22;571;50.930;6.926;2023-02-28T09:16:14;4.00;56.70
1165;DHT22;571;50.930;6.926;2023-02-28T09:18:42;4.10;57.10
1165;DHT22;571;50.930;6.926;2023-02-28T09:21:10;4.10;56.50
1165;DHT22;571;50.930;6.926;2023-02-28T09:23:39;4.20;55.40
1165;DHT22;571;50.930;6.926;2023-02-28T09:26:06;4.20;52.80
1165;DHT22;571;50.930;6.926;2023-02-28T09:28:35;4.10;53.30
1165;DHT22;571;50.930;6.926;2023-02-28T09:31:01;4.20;54.10
1165;DHT22;571;50.930;6.926;2023-02-28T09:33:30;4.20;54.20
1165;DHT22;571;50.930;6.926;2023-02-28T09:36:02;4.20;54.20
1165;DHT22;571;50.930;6.926;2023-02-28T09:38:30;4.20;54.60
1165;DHT22;571;50.930;6.926;2023-02-28T09:40:59;4.30;53.60
1165;DHT22;571;50.930;6.926;2023-02-28T09:43:28;4.30;53.40
1165;DHT22;571;50.930;6.926;2023-02-28T09:46:00;4.50;53.70
1165;DHT22;571;50.930;6.926;2023-02-28T09:48:33;4.50;52.80
1165;DHT22;571;50.930;6.926;2023-02-28T09:51:04;4.50;52.10
1165;DHT22;571;50.930;6.926;2023-02-28T09:53:33;4.60;51.90
1165;DHT22;571;50.930;6.926;2023-02-28T09:56:04;4.50;51.80
1165;DHT22;571;50.930;6.926;2023-02-28T09:58:35;4.50;51.30
1165;DHT22;571;50.930;6.926;2023-02-28T10:01:10;4.60;52.10
1165;DHT22;571;50.930;6.926;2023-02-28T10:03:40;4.70;51.10
1165;DHT22;571;50.930;6.926;2023-02-28T10:06:14;4.70;51.60
1165;DHT22;571;50.930;6.926;2023-02-28T10:08:47;4.70;52.40
1165;DHT22;571;50.930;6.926;2023-02-28T10:11:18;4.70;52.50
1165;DHT22;571;50.930;6.926;2023-02-28T10:13:51;4.80;51.30
1165;DHT22;571;50.930;6.926;2023-02-28T10:16:25;4.90;51.50
1165;DHT22;571;50.930;6.926;2023-02-28T10:18:56;4.90;51.20
1165;DHT22;571;50.930;6.926;2023-02-28T10:21:28;5.00;50.90
1165;DHT22;571;50.930;6.926;2023-02-28T10:24:02;5.10;50.40
1165;DHT22;571;50.930;6.926;2023-02-28T10:26:32;5.10;51.70
1165;DHT22;571;50.930;6.926;2023-02-28T10:28:59;5.00;49.70
1165;DHT22;571;50.930;6.926;2023-02-28T10:31:27;5.20;50.70
1165;DHT22;571;50.930;6.926;2023-02-28T10:33:55;5.20;51.70
1165;DHT22;571;50.930;6.926;2023-02-28T10:36:21;5.20;50.30
1165;DHT22;571;50.930;6.926;2023-02-28T10:38:49;5.30;50.70
1165;DHT22;571;50.930;6.926;2023-02-28T10:41:26;5.40;51.80
1165;DHT22;571;50.930;6.926;2023-02-28T10:44:13;5.40;51.70
1165;DHT22;571;50.930;6.926;2023-02-28T10:46:41;5.60;51.40
1165;DHT22;571;50.930;6.926;2023-02-28T10:49:15;5.80;51.20
1165;DHT22;571;50.930;6.926;2023-02-28T10:51:45;5.90;50.90
1165;DHT22;571;50.930;6.926;2023-02-28T10:54:16;6.00;50.00
1165;DHT22;571;50.930;6.926;2023-02-28T10:56:44;6.10;50.00
1165;DHT22;571;50.930;6.926;2023-02-28T10:59:28;6.20;50.40
1165;DHT22;571;50.930;6.926;2023-02-28T11:01:56;6.40;48.50
1165;DHT22;571;50.930;6.926;2023-02-28T11:04:34;6.40;49.10
1165;DHT22;571;50.930;6.926;2023-02-28T11:07:05;6.40;50.00
1165;DHT22;571;50.930;6.926;2023-02-28T11:09:34;6.40;48.60
1165;DHT22;571;50.930;6.926;2023-02-28T11:12:02;6.60;49.20
1165;DHT22;571;50.930;6.926;2023-02-28T11:14:31;6.80;49.10
1165;DHT22;571;50.930;6.926;2023-02-28T11:17:11;6.90;50.10
1165;DHT22;571;50.930;6.926;2023-02-28T11:19:45;7.10;49.30
1165;DHT22;571;50.930;6.926;2023-02-28T11:22:17;7.40;47.80
1165;DHT22;571;50.930;6.926;2023-02-28T11:24:46;7.50;46.80
1165;DHT22;571;50.930;6.926;2023-02-28T11:27:25;7.50;45.80
1165;DHT22;571;50.930;6.926;2023-02-28T11:29:52;7.60;46.10
1165;DHT22;571;50.930;6.926;2023-02-28T11:32:22;7.70;46.00
1165;DHT22;571;50.930;6.926;2023-02-28T11:35:01;7.70;45.60
1165;DHT22;571;50.930;6.926;2023-02-28T11:37:29;7.80;45.70
1165;DHT22;571;50.930;6.926;2023-02-28T11:39:56;8.00;46.30
1165;DHT22;571;50.930;6.926;2023-02-28T11:42:44;8.20;45.80
1165;DHT22;571;50.930;6.926;2023-02-28T11:45:28;8.40;46.90
1165;DHT22;571;50.930;6.926;2023-02-28T11:48:04;8.60;45.80
1165;DHT22;571;50.930;6.926;2023-02-28T11:50:47;8.80;44.00
1165;DHT22;571;50.930;6.926;2023-02-28T11:53:24;8.90;45.40
1165;DHT22;571;50.930;6.926;2023-02-28T11:56:02;9.10;44.10
1165;DHT22;571;50.930;6.926;2023-02-28T11:58:38;9.00;45.50
1165;DHT22;571;50.930;6.926;2023-02-28T12:04:17;9.20;45.90
1165;DHT22;571;50.930;6.926;2023-02-28T12:06:54;9.10;45.90
1165;DHT22;571;50.930;6.926;2023-02-28T12:09:34;9.40;45.00
1165;DHT22;571;50.930;6.926;2023-02-28T12:12:06;9.60;42.50
1165;DHT22;571;50.930;6.926;2023-02-28T12:14:53;9.70;44.10
1165;DHT22;571;50.930;6.926;2023-02-28T12:17:42;10.10;40.90
1165;DHT22;571;50.930;6.926;2023-02-28T12:20:21;10.20;40.30
1165;DHT22;571;50.930;6.926;2023-02-28T12:22:59;10.10;41.50
1165;DHT22;571;50.930;6.926;2023-02-28T12:25:55;10.50;40.70
1165;DHT22;571;50.930;6.926;2023-02-28T12:28:27;10.40;39.40
1165;DHT22;571;50.930;6.926;2023-02-28T12:30:59;10.20;40.70
1165;DHT22;571;50.930;6.926;2023-02-28T12:36:14;10.30;41.50
1165;DHT22;571;50.930;6.926;2023-02-28T12:38:47;10.30;41.30
1165;DHT22;571;50.930;6.926;2023-02-28T12:41:17;10.40;39.60
1165;DHT22;571;50.930;6.926;2023-02-28T12:43:48;10.40;39.90
1165;DHT22;571;50.930;6.926;2023-02-28T12:46:19;10.60;39.30
1165;DHT22;571;50.930;6.926;2023-02-28T12:48:50;10.70;40.20
1165;DHT22;571;50.930;6.926;2023-02-28T12:51:22;11.00;38.10
1165;DHT22;571;50.930;6.926;2023-02-28T12:53:59;10.80;38.70
1165;DHT22;571;50.930;6.926;2023-02-28T12:56:36;10.90;39.60
1165;DHT22;571;50.930;6.926;2023-02-28T12:59:13;11.00;39.30
1165;DHT22;571;50.930;6.926;2023-02-28T13:01:53;11.60;39.30
1165;DHT22;571;50.930;6.926;2023-02-28T13:04:45;12.10;38.00
1165;DHT22;571;50.930;6.926;2023-02-28T13:10:06;12.50;36.50
1165;DHT22;571;50.930;6.926;2023-02-28T13:12:34;12.00;36.20
1165;DHT22;571;50.930;6.926;2023-02-28T13:15:05;12.50;38.20
1165;DHT22;571;50.930;6.926;2023-02-28T13:17:39;12.70;36.40
1165;DHT22;571;50.930;6.926;2023-02-28T13:20:16;12.90;37.70
1165;DHT22;571;50.930;6.926;2023-02-28T13:22:46;13.30;35.40
1165;DHT22;571;50.930;6.926;2023-02-28T13:31:32;12.90;34.80
1165;DHT22;571;50.930;6.926;2023-02-28T13:34:15;12.80;33.70
1165;DHT22;571;50.930;6.926;2023-02-28T13:36:41;12.60;35.00
1165;DHT22;571;50.930;6.926;2023-02-28T13:39:47;12.70;35.50
1165;DHT22;571;50.930;6.926;2023-02-28T13:42:33;12.90;35.50
1165;DHT22;571;50.930;6.926;2023-02-28T13:45:25;12.60;34.50
1165;DHT22;571;50.930;6.926;2023-02-28T13:47:58;12.50;34.60
1165;DHT22;571;50.930;6.926;2023-02-28T13:50:34;12.60;35.00
1165;DHT22;571;50.930;6.926;2023-02-28T13:53:24;12.70;34.30
1165;DHT22;571;50.930;6.926;2023-02-28T13:56:01;12.00;34.80
1165;DHT22;571;50.930;6.926;2023-02-28T13:58:39;12.10;36.10
1165;DHT22;571;50.930;6.926;2023-02-28T14:01:16;12.10;34.20
1165;DHT22;571;50.930;6.926;2023-02-28T14:03:55;11.70;33.20
1165;DHT22;571;50.930;6.926;2023-02-28T14:06:26;11.50;33.10
1165;DHT22;571;50.930;6.926;2023-02-28T14:08:58;11.10;33.70
1165;DHT22;571;50.930;6.926;2023-02-28T14:11:32;10.80;33.50
1165;DHT22;571;50.930;6.926;2023-02-28T14:14:00;11.10;36.30
1165;DHT22;571;50.930;6.926;2023-02-28T14:16:34;10.90;33.70
1165;DHT22;571;50.930;6.926;2023-02-28T14:19:10;10.70;36.10
1165;DHT22;571;50.930;6.926;2023-02-28T14:21:40;10.70;34.60
1165;DHT22;571;50.930;6.926;2023-02-28T14:24:22;10.70;35.70
1165;DHT22;571;50.930;6.926;2023-02-28T14:27:12;11.00;36.30
1165;DHT22;571;50.930;6.926;2023-02-28T14:32:58;10.90;33.80
1165;DHT22;571;50.930;6.926;2023-02-28T14:35:43;10.40;34.60
1165;DHT22;571;50.930;6.926;2023-02-28T14:38:17;10.00;35.40
1165;DHT22;571;50.930;6.926;2023-02-28T14:40:47;9.80;37.80
1165;DHT22;571;50.930;6.926;2023-02-28T14:43:22;10.00;36.80
1165;DHT22;571;50.930;6.926;2023-02-28T14:45:50;10.00;37.10
1165;DHT22;571;50.930;6.926;2023-02-28T14:48:19;9.70;37.50
1165;DHT22;571;50.930;6.926;2023-02-28T14:50:49;9.40;38.40
1165;DHT22;571;50.930;6.926;2023-02-28T14:53:18;9.10;38.50
1165;DHT22;571;50.930;6.926;2023-02-28T14:55:47;9.40;38.90
1165;DHT22;571;50.930;6.926;2023-02-28T14:58:24;9.50;38.70
1165;DHT22;571;50.930;6.926;2023-02-28T15:00:53;9.30;39.30
1165;DHT22;571;50.930;6.926;2023-02-28T15:03:22;9.10;37.40
1165;DHT22;571;50.930;6.926;2023-02-28T15:05:52;8.80;39.60
1165;DHT22;571;50.930;6.926;2023-02-28T15:08:20;8.80;39.60
1165;DHT22;571;50.930;6.926;2023-02-28T15:10:53;8.80;39.80
1165;DHT22;571;50.930;6.926;2023-02-28T15:13:22;9.00;40.10
1165;DHT22;571;50.930;6.926;2023-02-28T15:15:53;8.80;37.60
1165;DHT22;571;50.930;6.926;2023-02-28T15:18:31;9.00;38.70
1165;DHT22;571;50.930;6.926;2023-02-28T15:21:03;9.00;38.60
1165;DHT22;571;50.930;6.926;2023-02-28T15:23:31;8.80;38.20
1165;DHT22;571;50.930;6.926;2023-02-28T15:25:59;8.60;37.80
1165;DHT22;571;50.930;6.926;2023-02-28T15:28:28;8.40;38.90
1165;DHT22;571;50.930;6.926;2023-02-28T15:30:57;8.50;39.60
1165;DHT22;571;50.930;6.926;2023-02-28T15:33:25;8.60;40.30
1165;DHT22;571;50.930;6.926;2023-02-28T15:36:04;8.60;40.10
1165;DHT22;571;50.930;6.926;2023-02-28T15:38:34;8.50;39.30
1165;DHT22;571;50.930;6.926;2023-02-28T15:41:02;8.50;40.20
1165;DHT22;571;50.930;6.926;2023-02-28T15:43:37;8.60;40.20
1165;DHT22;571;50.930;6.926;2023-02-28T15:46:06;8.60;39.70
1165;DHT22;571;50.930;6.926;2023-02-28T15:48:37;8.50;39.20
1165;DHT22;571;50.930;6.926;2023-02-28T15:51:07;8.50;39.50
1165;DHT22;571;50.930;6.926;2023-02-28T15:53:37;8.60;38.80
1165;DHT22;571;50.930;6.926;2023-02-28T15:56:16;8.50;39.70
1165;DHT22;571;50.930;6.926;2023-02-28T15:58:46;8.50;40.60
1165;DHT22;571;50.930;6.926;2023-02-28T16:01:20;8.40;40.10
1165;DHT22;571;50.930;6.926;2023-02-28T16:03:51;8.50;41.40
1165;DHT22;571;50.930;6.926;2023-02-28T16:06:37;8.50;40.70
1165;DHT22;571;50.930;6.926;2023-02-28T16:09:06;8.40;39.20
1165;DHT22;571;50.930;6.926;2023-02-28T16:11:37;8.50;40.70
1165;DHT22;571;50.930;6.926;2023-02-28T16:14:06;8.50;40.50
1165;DHT22;571;50.930;6.926;2023-02-28T16:16:42;8.50;41.40
1165;DHT22;571;50.930;6.926;2023-02-28T16:19:09;8.30;40.90
1165;DHT22;571;50.930;6.926;2023-02-28T16:21:36;8.30;41.10
1165;DHT22;571;50.930;6.926;2023-02-28T16:24:03;8.20;41.20
1165;DHT22;571;50.930;6.926;2023-02-28T16:26:44;8.10;41.70
1165;DHT22;571;50.930;6.926;2023-02-28T16:29:16;8.10;41.40
1165;DHT22;571;50.930;6.926;2023-02-28T16:31:45;8.00;41.90
1165;DHT22;571;50.930;6.926;2023-02-28T16:34:11;8.00;41.60
1165;DHT22;571;50.930;6.926;2023-02-28T16:36:38;8.00;42.20
1165;DHT22;571;50.930;6.926;2023-02-28T16:39:05;8.00;41.40
1165;DHT22;571;50.930;6.926;2023-02-28T16:41:33;7.90;41.60
1165;DHT22;571;50.930;6.926;2023-02-28T16:44:00;7.90;42.50
1165;DHT22;571;50.930;6.926;2023-02-28T16:46:31;7.80;41.50
1165;DHT22;571;50.930;6.926;2023-02-28T16:48:59;7.80;41.40
1165;DHT22;571;50.930;6.926;2023-02-28T16:51:26;7.80;41.20
1165;DHT22;571;50.930;6.926;2023-02-28T16:53:53;7.70;41.40
1165;DHT22;571;50.930;6.926;2023-02-28T16:56:21;7.50;41.40
1165;DHT22;571;50.930;6.926;2023-02-28T16:58:49;7.50;42.10
1165;DHT22;571;50.930;6.926;2023-02-28T17:01:17;7.40;41.30
1165;DHT22;571;50.930;6.926;2023-02-28T17:03:48;7.50;42.50
1165;DHT22;571;50.930;6.926;2023-02-28T17:06:19;7.30;42.10
1165;DHT22;571;50.930;6.926;2023-02-28T17:08:47;7.40;43.70
1165;DHT22;571;50.930;6.926;2023-02-28T17:11:14;7.30;43.00
1165;DHT22;571;50.930;6.926;2023-02-28T17:13:41;7.20;43.00
1165;DHT22;571;50.930;6.926;2023-02-28T17:16:17;7.20;43.60
1165;DHT22;571;50.930;6.926;2023-02-28T17:18:44;7.20;44.10
1165;DHT22;571;50.930;6.926;2023-02-28T17:21:15;7.10;43.00
1165;DHT22;571;50.930;6.926;2023-02-28T17:23:42;7.00;43.90
1165;DHT22;571;50.930;6.926;2023-02-28T17:26:13;7.00;44.30
1165;DHT22;571;50.930;6.926;2023-02-28T17:28:40;7.10;45.00
1165;DHT22;571;50.930;6.926;2023-02-28T17:31:07;7.00;44.40
1165;DHT22;571;50.930;6.926;2023-02-28T17:33:34;6.90;44.40
1165;DHT22;571;50.930;6.926;2023-02-28T17:36:01;6.90;45.00
1165;DHT22;571;50.930;6.926;2023-02-28T17:38:29;6.80;45.10
1165;DHT22;571;50.930;6.926;2023-02-28T17:40:56;6.70;45.10
1165;DHT22;571;50.930;6.926;2023-02-28T17:43:23;6.70;45.30
1165;DHT22;571;50.930;6.926;2023-02-28T17:45:50;6.70;45.80
1165;DHT22;571;50.930;6.926;2023-02-28T17:48:17;6.60;45.80
1165;DHT22;571;50.930;6.926;2023-02-28T17:50:44;6.50;45.80
1165;DHT22;571;50.930;6.926;2023-02-28T17:53:10;6.50;46.80
1165;DHT22;571;50.930;6.926;2023-02-28T17:55:38;6.40;46.80
1165;DHT22;571;50.930;6.926;2023-02-28T17:58:05;6.40;47.70
1165;DHT22;571;50.930;6.926;2023-02-28T18:00:32;6.50;48.00
1165;DHT22;571;50.930;6.926;2023-02-28T18:02:59;6.50;47.70
1165;DHT22;571;50.930;6.926;2023-02-28T18:05:25;6.50;47.80
1165;DHT22;571;50.930;6.926;2023-02-28T18:07:52;6.60;46.50
1165;DHT22;571;50.930;6.926;2023-02-28T18:10:20;6.50;46.20
1165;DHT22;571;50.930;6.926;2023-02-28T18:12:49;6.30;46.90
1165;DHT22;571;50.930;6.926;2023-02-28T18:15:17;6.10;48.50
1165;DHT22;571;50.930;6.926;2023-02-28T18:17:45;6.10;49.60
1165;DHT22;571;50.930;6.926;2023-02-28T18:20:12;6.00;49.40
1165;DHT22;571;50.930;6.926;2023-02-28T18:22:40;5.90;50.40
1165;DHT22;571;50.930;6.926;2023-02-28T18:25:09;5.80;51.50
1165;DHT22;571;50.930;6.926;2023-02-28T18:27:39;5.70;52.60
1165;DHT22;571;50.930;6.926;2023-02-28T18:30:24;5.80;52.60
1165;DHT22;571;50.930;6.926;2023-02-28T18:32:51;5.70;53.00
1165;DHT22;571;50.930;6.926;2023-02-28T18:35:18;5.70;52.90
1165;DHT22;571;50.930;6.926;2023-02-28T18:38:00;5.60;54.40
1165;DHT22;571;50.930;6.926;2023-02-28T18:40:27;5.50;56.90
1165;DHT22;571;50.930;6.926;2023-02-28T18:42:53;5.40;56.90
1165;DHT22;571;50.930;6.926;2023-02-28T18:45:20;5.30;58.00
1165;DHT22;571;50.930;6.926;2023-02-28T18:47:48;5.30;58.80
1165;DHT22;571;50.930;6.926;2023-02-28T18:50:15;5.40;58.70
1165;DHT22;571;50.930;6.926;2023-02-28T18:52:42;5.40;58.80
1165;DHT22;571;50.930;6.926;2023-02-28T18:55:09;5.40;58.60
1165;DHT22;571;50.930;6.926;2023-02-28T18:57:39;5.30;59.80
1165;DHT22;571;50.930;6.926;2023-02-28T19:00:07;5.40;60.90
1165;DHT22;571;50.930;6.926;2023-02-28T19:02:35;5.40;60.00
1165;DHT22;571;50.930;6.926;2023-02-28T19:05:08;5.40;60.80
1165;DHT22;571;50.930;6.926;2023-02-28T19:07:36;5.30;61.00
1165;DHT22;571;50.930;6.926;2023-02-28T19:10:03;5.20;61.50
1165;DHT22;571;50.930;6.926;2023-02-28T19:12:32;5.30;61.20
1165;DHT22;571;50.930;6.926;2023-02-28T19:14:59;5.30;61.30
1165;DHT22;571;50.930;6.926;2023-02-28T19:17:27;5.30;61.50
1165;DHT22;571;50.930;6.926;2023-02-28T19:19:54;5.30;61.10
1165;DHT22;571;50.930;6.926;2023-02-28T19:22:23;5.30;61.30
1165;DHT22;571;50.930;6.926;2023-02-28T19:24:50;5.20;61.80
1165;DHT22;571;50.930;6.926;2023-02-28T19:27:17;5.20;62.80
1165;DHT22;571;50.930;6.926;2023-02-28T19:29:46;5.10;62.30
1165;DHT22;571;50.930;6.926;2023-02-28T19:32:14;5.10;62.10
1165;DHT22;571;50.930;6.926;2023-02-28T19:34:40;5.10;62.10
1165;DHT22;571;50.930;6.926;2023-02-28T19:37:07;5.00;63.30
1165;DHT22;571;50.930;6.926;2023-02-28T19:39:35;4.90;64.00
1165;DHT22;571;50.930;6.926;2023-02-28T19:42:07;4.90;63.90
1165;DHT22;571;50.930;6.926;2023-02-28T19:44:34;4.80;64.60
1165;DHT22;571;50.930;6.926;2023-02-28T19:47:00;4.90;65.30
1165;DHT22;571;50.930;6.926;2023-02-28T19:49:27;5.00;64.10
1165;DHT22;571;50.930;6.926;2023-02-28T19:51:54;4.90;63.80
1165;DHT22;571;50.930;6.926;2023-02-28T19:54:21;4.80;64.70
1165;DHT22;571;50.930;6.926;2023-02-28T19:56:49;4.70;64.70
1165;DHT22;571;50.930;6.926;2023-02-28T19:59:16;4.70;64.90
1165;DHT22;571;50.930;6.926;2023-02-28T20:01:42;4.70;65.30
1165;DHT22;571;50.930;6.926;2023-02-28T20:04:09;4.60;67.70
1165;DHT22;571;50.930;6.926;2023-02-28T20:06:36;4.50;66.80
1165;DHT22;571;50.930;6.926;2023-02-28T20:09:03;4.60;66.30
1165;DHT22;571;50.930;6.926;2023-02-28T20:11:29;4.70;65.40
1165;DHT22;571;50.930;6.926;2023-02-28T20:13:58;4.80;64.70
1165;DHT22;571;50.930;6.926;2023-02-28T20:16:26;4.70;66.00
1165;DHT22;571;50.930;6.926;2023-02-28T20:18:53;4.70;66.20
1165;DHT22;571;50.930;6.926;2023-02-28T20:21:20;4.60;66.10
1165;DHT22;571;50.930;6.926;2023-02-28T20:23:47;4.50;68.10
1165;DHT22;571;50.930;6.926;2023-02-28T20:26:14;4.40;69.50
1165;DHT22;571;50.930;6.926;2023-02-28T20:28:45;4.30;69.30
1165;DHT22;571;50.930;6.926;2023-02-28T20:31:15;4.20;70.60
1165;DHT22;571;50.930;6.926;2023-02-28T20:33:43;4.10;71.80
1165;DHT22;571;50.930;6.926;2023-02-28T20:36:10;4.10;72.50
1165;DHT22;571;50.930;6.926;2023-02-28T20:38:37;4.00;73.00
1165;DHT22;571;50.930;6.926;2023-02-28T20:41:04;4.10;72.60
1165;DHT22;571;50.930;6.926;2023-02-28T20:43:31;3.90;73.20
1165;DHT22;571;50.930;6.926;2023-02-28T20:45:59;3.80;72.50
1165;DHT22;571;50.930;6.926;2023-02-28T20:48:29;3.90;72.40
1165;DHT22;571;50.930;6.926;2023-02-28T20:50:57;3.80;74.60
1165;DHT22;571;50.930;6.926;2023-02-28T20:53:26;3.70;74.50